Time;durP1;ratioP1;P1;durP2;ratioP2;P2;SDS_P1;SDS_P2;PMS_P1;PMS_P2;Temp;Humidity;BMP_temperature;BMP_pressure;BME280_temperature;BME280_humidity;BME280_pressure;Samples;Min_cycle;Max_cycle;Signal;HPM_P1;HPM_P2
2023/08/14 00:01:45;;;;;;;;;;;21.30;70.30;;;;;;5058110;28;844;-67
2023/08/14 00:04:11;;;;;;;;;;;21.30;70.30;;;;;;5059202;28;942;-67
2023/08/14 00:06:36;;;;;;;;;;;21.30;70.30;;;;;;5060014;28;1381;-66
2023/08/14 00:09:02;;;;;;;;;;;21.30;70.30;;;;;;5057723;28;1151;-67
2023/08/14 00:11:27;;;;;;;;;;;21.40;70.40;;;;;;5057826;28;841;-68
2023/08/14 00:13:54;;;;;;;;;;;21.30;70.30;;;;;;5059392;28;802;-69
2023/08/14 00:16:19;;;;;;;;;;;21.40;70.40;;;;;;5060412;28;1355;-68
2023/08/14 00:18:45;;;;;;;;;;;21.30;71.10;;;;;;5057144;28;1007;-68
2023/08/14 00:21:10;;;;;;;;;;;21.30;70.30;;;;;;5060208;28;1905;-68
2023/08/14 00:23:36;;;;;;;;;;;21.30;70.30;;;;;;5059142;28;998;-68
2023/08/14 00:26:01;;;;;;;;;;;21.30;70.30;;;;;;5057635;28;1347;-68
2023/08/14 00:28:27;;;;;;;;;;;21.40;70.40;;;;;;5058189;28;908;-68
2023/08/14 00:30:52;;;;;;;;;;;21.30;70.30;;;;;;5060590;28;981;-68
2023/08/14 00:33:18;;;;;;;;;;;21.40;70.40;;;;;;5058195;28;851;-69
2023/08/14 00:35:43;;;;;;;;;;;21.30;70.30;;;;;;5059161;28;1342;-69
2023/08/14 00:38:08;;;;;;;;;;;21.30;70.40;;;;;;5059279;28;887;-68
2023/08/14 00:40:34;;;;;;;;;;;21.30;70.30;;;;;;5059608;28;1926;-68
2023/08/14 00:42:59;;;;;;;;;;;21.30;70.30;;;;;;5057839;28;884;-67
2023/08/14 00:45:25;;;;;;;;;;;21.30;70.40;;;;;;5056929;28;850;-69
2023/08/14 00:47:50;;;;;;;;;;;21.30;70.40;;;;;;5058372;28;1192;-70
2023/08/14 00:50:16;;;;;;;;;;;21.30;70.40;;;;;;5056358;28;890;-68
2023/08/14 00:52:43;;;;;;;;;;;21.30;70.40;;;;;;5058532;28;1135;-68
2023/08/14 00:55:10;;;;;;;;;;;21.30;70.40;;;;;;5057826;28;852;-70
2023/08/14 00:57:35;;;;;;;;;;;21.30;70.40;;;;;;5065065;28;1287;-68
2023/08/14 01:00:03;;;;;;;;;;;21.30;70.40;;;;;;5058387;28;1930;-68
2023/08/14 01:02:28;;;;;;;;;;;21.30;70.40;;;;;;5056504;28;933;-68
2023/08/14 01:04:53;;;;;;;;;;;21.30;70.40;;;;;;5058166;28;840;-68
2023/08/14 01:07:19;;;;;;;;;;;21.30;70.40;;;;;;5063369;28;1366;-70
2023/08/14 01:09:45;;;;;;;;;;;21.30;70.40;;;;;;5060404;28;828;-69
2023/08/14 01:12:16;;;;;;;;;;;21.30;70.40;;;;;;5058980;28;872;-69
2023/08/14 01:14:41;;;;;;;;;;;21.30;70.40;;;;;;5059315;28;844;-68
2023/08/14 01:17:09;;;;;;;;;;;21.30;70.40;;;;;;5056563;28;1372;-69
2023/08/14 01:19:35;;;;;;;;;;;21.30;70.40;;;;;;5069352;28;1961;-69
2023/08/14 01:22:05;;;;;;;;;;;21.30;70.40;;;;;;5059734;28;1583;-68
2023/08/14 01:24:51;;;;;;;;;;;21.30;70.40;;;;;;5059441;28;959;-69
2023/08/14 01:27:17;;;;;;;;;;;21.30;70.40;;;;;;5057772;28;1598;-69
2023/08/14 01:29:43;;;;;;;;;;;21.30;70.50;;;;;;5064295;28;849;-69
2023/08/14 01:32:08;;;;;;;;;;;21.30;70.40;;;;;;5059850;28;871;-70
2023/08/14 01:34:33;;;;;;;;;;;21.30;70.40;;;;;;5062053;28;813;-69
2023/08/14 01:37:01;;;;;;;;;;;21.30;70.40;;;;;;5060701;28;1281;-69
2023/08/14 01:39:28;;;;;;;;;;;21.30;70.50;;;;;;5056226;28;1890;-68
2023/08/14 01:41:59;;;;;;;;;;;21.30;70.50;;;;;;5054702;28;931;-68
2023/08/14 01:44:24;;;;;;;;;;;21.30;70.50;;;;;;5069115;28;800;-69
2023/08/14 01:46:50;;;;;;;;;;;21.30;70.50;;;;;;5063820;28;1325;-69
2023/08/14 01:49:16;;;;;;;;;;;21.30;70.50;;;;;;5067090;28;932;-69
2023/08/14 01:51:42;;;;;;;;;;;21.30;70.50;;;;;;5059577;28;967;-70
2023/08/14 01:54:08;;;;;;;;;;;21.30;70.50;;;;;;5060910;28;851;-69
2023/08/14 01:56:34;;;;;;;;;;;21.30;70.50;;;;;;5063004;28;1351;-69
2023/08/14 01:58:59;;;;;;;;;;;21.30;70.50;;;;;;5062379;28;1045;-69
2023/08/14 02:01:25;;;;;;;;;;;21.30;70.50;;;;;;5060805;28;1979;-68
2023/08/14 02:03:50;;;;;;;;;;;21.30;70.50;;;;;;5061296;28;960;-68
2023/08/14 02:06:16;;;;;;;;;;;21.30;70.50;;;;;;5061118;28;1287;-69
2023/08/14 02:08:41;;;;;;;;;;;21.30;70.50;;;;;;5061892;28;865;-69
2023/08/14 02:11:07;;;;;;;;;;;21.30;70.50;;;;;;5059166;28;879;-68
2023/08/14 02:13:32;;;;;;;;;;;21.30;70.50;;;;;;5059424;28;887;-68
2023/08/14 02:15:58;;;;;;;;;;;21.30;70.50;;;;;;5061107;28;1224;-69
2023/08/14 02:18:23;;;;;;;;;;;21.30;70.50;;;;;;5056492;28;1292;-68
2023/08/14 02:20:49;;;;;;;;;;;21.30;70.50;;;;;;5057744;28;1973;-68
2023/08/14 02:23:14;;;;;;;;;;;21.30;70.50;;;;;;5056125;28;887;-69
2023/08/14 02:25:43;;;;;;;;;;;21.30;70.50;;;;;;5059347;28;1223;-68
2023/08/14 02:28:09;;;;;;;;;;;21.30;70.50;;;;;;5060150;28;1242;-69
2023/08/14 02:30:35;;;;;;;;;;;21.30;70.60;;;;;;5062446;28;811;-68
2023/08/14 02:33:00;;;;;;;;;;;21.30;70.50;;;;;;5062978;28;839;-67
2023/08/14 02:35:26;;;;;;;;;;;21.30;70.50;;;;;;5057300;28;867;-67
2023/08/14 02:37:51;;;;;;;;;;;21.30;70.60;;;;;;5056322;28;1316;-67
2023/08/14 02:40:17;;;;;;;;;;;21.30;70.50;;;;;;5065609;28;1947;-69
2023/08/14 02:42:42;;;;;;;;;;;21.30;70.50;;;;;;5060903;28;867;-69
2023/08/14 02:45:08;;;;;;;;;;;21.30;70.50;;;;;;5057837;28;1206;-68
2023/08/14 02:47:34;;;;;;;;;;;21.30;70.60;;;;;;5059250;28;1259;-69
2023/08/14 02:49:59;;;;;;;;;;;21.30;70.50;;;;;;5057208;28;925;-69
2023/08/14 02:52:24;;;;;;;;;;;21.30;70.60;;;;;;5059724;28;1062;-68
2023/08/14 02:54:50;;;;;;;;;;;21.30;70.60;;;;;;5060905;28;855;-68
2023/08/14 02:57:15;;;;;;;;;;;21.30;70.60;;;;;;5058098;28;1208;-69
2023/08/14 02:59:41;;;;;;;;;;;21.30;70.60;;;;;;5053692;28;1946;-68
2023/08/14 03:02:06;;;;;;;;;;;21.30;70.60;;;;;;5056903;28;836;-68
2023/08/14 03:04:32;;;;;;;;;;;21.30;70.60;;;;;;5060007;28;1002;-69
2023/08/14 03:06:57;;;;;;;;;;;21.30;70.60;;;;;;5059242;28;1329;-68
2023/08/14 03:09:23;;;;;;;;;;;21.30;70.60;;;;;;5058354;28;875;-68
2023/08/14 03:11:48;;;;;;;;;;;21.30;70.60;;;;;;5057971;28;824;-69
2023/08/14 03:14:13;;;;;;;;;;;21.30;70.60;;;;;;5059613;28;1337;-68
2023/08/14 03:16:39;;;;;;;;;;;21.30;70.60;;;;;;5058603;28;1342;-68
2023/08/14 03:19:04;;;;;;;;;;;21.30;70.60;;;;;;5057739;28;1284;-69
2023/08/14 03:21:30;;;;;;;;;;;21.30;70.60;;;;;;5056196;28;1978;-69
2023/08/14 03:23:55;;;;;;;;;;;21.30;70.70;;;;;;5060241;28;998;-69
2023/08/14 03:26:21;;;;;;;;;;;21.30;70.60;;;;;;5058153;28;1365;-69
2023/08/14 03:28:46;;;;;;;;;;;21.30;70.70;;;;;;5060000;28;1266;-69
2023/08/14 03:31:12;;;;;;;;;;;21.30;70.70;;;;;;5056233;28;1151;-68
2023/08/14 03:33:37;;;;;;;;;;;21.30;70.60;;;;;;5057667;28;959;-69
2023/08/14 03:36:03;;;;;;;;;;;21.30;70.70;;;;;;5057929;28;1343;-69
2023/08/14 03:38:29;;;;;;;;;;;21.30;70.70;;;;;;5058639;28;1384;-70
2023/08/14 03:40:54;;;;;;;;;;;21.30;70.70;;;;;;5060298;28;1894;-68
2023/08/14 03:43:20;;;;;;;;;;;21.30;70.70;;;;;;5057999;28;1030;-69
2023/08/14 03:45:45;;;;;;;;;;;21.30;70.70;;;;;;5060490;28;1347;-69
2023/08/14 03:48:10;;;;;;;;;;;21.30;70.70;;;;;;5059303;28;951;-68
2023/08/14 03:50:36;;;;;;;;;;;21.30;70.70;;;;;;5057858;28;1045;-69
2023/08/14 03:53:01;;;;;;;;;;;21.30;70.70;;;;;;5057254;28;860;-68
2023/08/14 03:55:27;;;;;;;;;;;21.30;70.70;;;;;;5057690;28;782;-69
2023/08/14 03:57:52;;;;;;;;;;;21.30;70.70;;;;;;5056323;28;1347;-69
2023/08/14 04:00:18;;;;;;;;;;;21.30;70.70;;;;;;5044332;28;1961;-69
2023/08/14 04:02:43;;;;;;;;;;;21.30;70.70;;;;;;5055359;28;897;-68
2023/08/14 04:05:09;;;;;;;;;;;21.30;70.70;;;;;;5058941;28;899;-68
2023/08/14 04:07:34;;;;;;;;;;;21.30;70.70;;;;;;5054202;28;1243;-69
2023/08/14 04:10:00;;;;;;;;;;;21.30;70.70;;;;;;5056711;28;906;-68
2023/08/14 04:12:25;;;;;;;;;;;21.30;70.70;;;;;;5060364;28;875;-68
2023/08/14 04:14:51;;;;;;;;;;;21.30;70.70;;;;;;5059433;28;1026;-69
2023/08/14 04:17:16;;;;;;;;;;;21.30;70.70;;;;;;5057868;28;1272;-68
2023/08/14 04:19:42;;;;;;;;;;;21.30;70.70;;;;;;5055293;28;1957;-69
2023/08/14 04:22:07;;;;;;;;;;;21.30;70.70;;;;;;5059770;28;882;-69
2023/08/14 04:24:33;;;;;;;;;;;21.30;70.70;;;;;;5058824;28;1343;-69
2023/08/14 04:26:58;;;;;;;;;;;21.30;70.70;;;;;;5053490;28;1263;-68
2023/08/14 04:29:24;;;;;;;;;;;21.30;70.70;;;;;;5056212;28;1526;-69
2023/08/14 04:31:49;;;;;;;;;;;21.30;70.70;;;;;;5059881;28;847;-69
2023/08/14 04:34:15;;;;;;;;;;;21.30;70.70;;;;;;5059467;28;981;-69
2023/08/14 04:36:40;;;;;;;;;;;21.30;70.70;;;;;;5058239;28;1270;-69
2023/08/14 04:39:07;;;;;;;;;;;21.30;70.70;;;;;;5062097;28;1343;-68
2023/08/14 04:41:33;;;;;;;;;;;21.30;70.70;;;;;;5063316;28;2334;-68
2023/08/14 04:43:58;;;;;;;;;;;21.30;70.70;;;;;;5062629;28;891;-68
2023/08/14 04:46:34;;;;;;;;;;;21.30;70.70;;;;;;5056699;28;1859;-70
2023/08/14 04:48:59;;;;;;;;;;;21.30;70.80;;;;;;5059080;28;1344;-68
2023/08/14 04:51:25;;;;;;;;;;;21.30;70.70;;;;;;5060372;28;1385;-69
2023/08/14 04:53:50;;;;;;;;;;;21.30;70.70;;;;;;5059464;28;947;-70
2023/08/14 04:56:16;;;;;;;;;;;21.30;70.80;;;;;;5060876;28;1272;-70
2023/08/14 04:58:41;;;;;;;;;;;21.30;70.80;;;;;;5057334;28;955;-71
2023/08/14 05:01:07;;;;;;;;;;;21.30;70.80;;;;;;5059801;28;1967;-70
2023/08/14 05:03:32;;;;;;;;;;;21.30;70.80;;;;;;5061767;28;792;-69
2023/08/14 05:05:58;;;;;;;;;;;21.30;70.80;;;;;;5060512;28;1343;-68
2023/08/14 05:08:23;;;;;;;;;;;21.30;70.80;;;;;;5060538;28;796;-69
2023/08/14 05:10:49;;;;;;;;;;;21.30;70.80;;;;;;5062819;28;927;-70
2023/08/14 05:13:15;;;;;;;;;;;21.30;70.80;;;;;;5063015;28;1685;-69
2023/08/14 05:15:40;;;;;;;;;;;21.30;70.80;;;;;;5059659;28;1260;-68
2023/08/14 05:18:06;;;;;;;;;;;21.30;70.80;;;;;;5059215;28;832;-68
2023/08/14 05:20:33;;;;;;;;;;;21.30;70.80;;;;;;5059588;28;1899;-70
2023/08/14 05:22:58;;;;;;;;;;;21.30;70.80;;;;;;5057809;28;1043;-71
2023/08/14 05:25:24;;;;;;;;;;;21.30;70.80;;;;;;5060499;28;825;-71
2023/08/14 05:27:49;;;;;;;;;;;21.30;70.80;;;;;;5063037;28;1296;-71
2023/08/14 05:30:15;;;;;;;;;;;21.30;70.80;;;;;;5067876;28;1022;-70
2023/08/14 05:32:41;;;;;;;;;;;21.30;70.80;;;;;;5061558;28;849;-70
2023/08/14 05:35:07;;;;;;;;;;;21.30;70.80;;;;;;5061325;28;902;-70
2023/08/14 05:37:32;;;;;;;;;;;21.30;70.90;;;;;;5060489;28;1329;-71
2023/08/14 05:39:58;;;;;;;;;;;21.30;70.90;;;;;;5063058;28;1961;-70
2023/08/14 05:42:23;;;;;;;;;;;21.30;71.00;;;;;;5057496;28;1232;-69
2023/08/14 05:44:49;;;;;;;;;;;21.30;71.00;;;;;;5057159;28;1507;-69
2023/08/14 05:47:14;;;;;;;;;;;21.30;71.00;;;;;;5057286;28;1327;-68
2023/08/14 05:49:39;;;;;;;;;;;21.30;71.00;;;;;;5061104;28;1148;-69
2023/08/14 05:52:05;;;;;;;;;;;21.30;71.10;;;;;;5062483;28;907;-68
2023/08/14 05:54:30;;;;;;;;;;;21.30;71.20;;;;;;5060110;28;883;-70
2023/08/14 05:56:56;;;;;;;;;;;21.30;71.30;;;;;;5061820;28;1266;-70
2023/08/14 05:59:21;;;;;;;;;;;21.30;71.30;;;;;;5057701;28;1183;-68
2023/08/14 06:01:47;;;;;;;;;;;21.30;71.30;;;;;;5058563;28;1905;-69
2023/08/14 06:04:13;;;;;;;;;;;21.30;71.30;;;;;;5059082;28;1317;-69
2023/08/14 06:06:38;;;;;;;;;;;21.30;71.20;;;;;;5061742;28;1255;-68
2023/08/14 06:09:04;;;;;;;;;;;21.30;71.40;;;;;;5059585;28;844;-68
2023/08/14 06:11:29;;;;;;;;;;;21.30;71.40;;;;;;5063100;28;831;-68
2023/08/14 06:13:55;;;;;;;;;;;21.30;71.40;;;;;;5056602;28;1007;-68
2023/08/14 06:16:20;;;;;;;;;;;21.30;71.40;;;;;;5061640;28;1327;-69
2023/08/14 06:18:46;;;;;;;;;;;21.30;71.40;;;;;;5059288;28;1402;-67
2023/08/14 06:21:11;;;;;;;;;;;21.30;71.40;;;;;;5061748;28;1955;-68
2023/08/14 06:23:37;;;;;;;;;;;21.30;71.40;;;;;;5059054;28;899;-68
2023/08/14 06:26:02;;;;;;;;;;;21.30;71.40;;;;;;5058148;28;1251;-68
2023/08/14 06:28:28;;;;;;;;;;;21.30;71.40;;;;;;5059071;28;1263;-68
2023/08/14 06:30:53;;;;;;;;;;;21.30;71.40;;;;;;5068187;28;1027;-68
2023/08/14 06:33:19;;;;;;;;;;;21.30;71.40;;;;;;5059349;28;808;-68
2023/08/14 06:35:44;;;;;;;;;;;21.30;71.40;;;;;;5057179;28;1347;-68
2023/08/14 06:38:10;;;;;;;;;;;21.30;71.40;;;;;;5060523;28;1359;-72
2023/08/14 06:40:35;;;;;;;;;;;21.30;71.30;;;;;;5057499;28;1969;-72
2023/08/14 06:43:02;;;;;;;;;;;21.30;71.40;;;;;;5061516;28;863;-72
2023/08/14 06:45:28;;;;;;;;;;;21.30;71.40;;;;;;5057033;28;798;-72
2023/08/14 06:47:53;;;;;;;;;;;21.30;71.40;;;;;;5056654;28;2141;-68
2023/08/14 06:50:19;;;;;;;;;;;21.30;71.40;;;;;;5062332;28;1238;-72
2023/08/14 06:52:45;;;;;;;;;;;21.30;71.40;;;;;;5052709;28;1720;-69
2023/08/14 06:55:11;;;;;;;;;;;21.30;71.40;;;;;;5066175;28;1065;-68
2023/08/14 06:57:36;;;;;;;;;;;21.30;71.40;;;;;;5061835;28;1368;-68
2023/08/14 07:00:07;;;;;;;;;;;21.30;71.40;;;;;;5059674;28;1967;-69
2023/08/14 07:02:33;;;;;;;;;;;21.30;71.40;;;;;;5055128;28;858;-69
2023/08/14 07:04:58;;;;;;;;;;;21.30;71.40;;;;;;5056706;28;801;-69
2023/08/14 07:07:24;;;;;;;;;;;21.40;71.40;;;;;;5059773;28;1377;-69
2023/08/14 07:09:49;;;;;;;;;;;21.40;71.50;;;;;;5057307;28;839;-70
2023/08/14 07:12:15;;;;;;;;;;;21.40;71.40;;;;;;5058640;28;962;-69
2023/08/14 07:14:40;;;;;;;;;;;21.40;71.50;;;;;;5061207;28;1061;-71
2023/08/14 07:17:06;;;;;;;;;;;21.40;71.50;;;;;;5062866;28;1256;-70
2023/08/14 07:19:31;;;;;;;;;;;21.40;71.50;;;;;;5059185;28;901;-69
2023/08/14 07:21:57;;;;;;;;;;;21.40;71.50;;;;;;5059382;28;1906;-68
2023/08/14 07:24:23;;;;;;;;;;;21.40;71.50;;;;;;5060578;28;1278;-69
2023/08/14 07:26:48;;;;;;;;;;;21.40;71.50;;;;;;5056490;28;1284;-70
2023/08/14 07:29:14;;;;;;;;;;;21.40;71.50;;;;;;5058570;28;1324;-68
2023/08/14 07:31:39;;;;;;;;;;;21.40;71.40;;;;;;5060764;28;1069;-68
2023/08/14 07:34:04;;;;;;;;;;;21.30;71.40;;;;;;5055963;28;825;-69
2023/08/14 07:36:30;;;;;;;;;;;21.40;71.50;;;;;;5057628;28;1373;-70
2023/08/14 07:38:55;;;;;;;;;;;21.40;71.50;;;;;;5060000;28;1327;-68
2023/08/14 07:41:21;;;;;;;;;;;21.40;71.50;;;;;;5056614;28;1955;-71
2023/08/14 07:43:46;;;;;;;;;;;21.40;71.40;;;;;;5067281;28;832;-68
2023/08/14 07:46:12;;;;;;;;;;;21.40;71.40;;;;;;5060040;28;1250;-69
2023/08/14 07:48:37;;;;;;;;;;;21.40;71.40;;;;;;5058517;28;1319;-69
2023/08/14 07:51:03;;;;;;;;;;;21.40;71.40;;;;;;5059294;28;872;-68
2023/08/14 07:53:28;;;;;;;;;;;21.50;71.50;;;;;;5056415;28;911;-69
2023/08/14 07:55:54;;;;;;;;;;;21.50;71.50;;;;;;5056045;28;1357;-69
2023/08/14 07:58:20;;;;;;;;;;;21.50;71.50;;;;;;5057064;28;839;-68
2023/08/14 08:00:45;;;;;;;;;;;21.50;71.60;;;;;;5056954;28;2040;-70
2023/08/14 08:03:11;;;;;;;;;;;21.50;71.70;;;;;;5058889;28;916;-69
2023/08/14 08:05:37;;;;;;;;;;;21.50;71.70;;;;;;5055993;28;1500;-69
2023/08/14 08:08:02;;;;;;;;;;;21.50;71.60;;;;;;5054926;28;1310;-68
2023/08/14 08:10:28;;;;;;;;;;;21.50;71.70;;;;;;5056826;28;1949;-70
2023/08/14 08:12:53;;;;;;;;;;;21.60;71.70;;;;;;5059616;28;1344;-69
2023/08/14 08:15:19;;;;;;;;;;;21.60;71.60;;;;;;5058369;28;1398;-69
2023/08/14 08:17:45;;;;;;;;;;;21.60;71.60;;;;;;5057432;28;1343;-69
2023/08/14 08:20:10;;;;;;;;;;;21.60;71.50;;;;;;5057898;28;1963;-70
2023/08/14 08:22:36;;;;;;;;;;;21.60;71.30;;;;;;5054578;28;1013;-71
2023/08/14 08:25:01;;;;;;;;;;;21.60;71.20;;;;;;5054206;28;1054;-69
2023/08/14 08:27:27;;;;;;;;;;;21.70;70.10;;;;;;5060274;28;1324;-70
2023/08/14 08:29:52;;;;;;;;;;;21.70;70.20;;;;;;5056343;28;1099;-69
2023/08/14 08:32:18;;;;;;;;;;;21.70;70.30;;;;;;5055876;28;832;-69
2023/08/14 08:34:43;;;;;;;;;;;21.70;70.30;;;;;;5059944;28;966;-69
2023/08/14 08:37:08;;;;;;;;;;;21.70;70.30;;;;;;5055863;28;1339;-69
2023/08/14 08:39:34;;;;;;;;;;;21.70;70.50;;;;;;5055873;28;817;-69
2023/08/14 08:41:59;;;;;;;;;;;21.80;70.60;;;;;;5055459;28;1902;-69
2023/08/14 08:44:25;;;;;;;;;;;21.80;70.50;;;;;;5054943;28;813;-70
2023/08/14 08:46:52;;;;;;;;;;;21.80;70.50;;;;;;5054012;28;1445;-69
2023/08/14 08:49:17;;;;;;;;;;;21.80;70.50;;;;;;5055534;28;1284;-71
2023/08/14 08:51:43;;;;;;;;;;;21.80;70.60;;;;;;5058653;28;891;-71
2023/08/14 08:54:09;;;;;;;;;;;21.80;70.50;;;;;;5058206;28;844;-70
2023/08/14 08:56:35;;;;;;;;;;;21.70;70.60;;;;;;5059893;28;1281;-69
2023/08/14 08:59:00;;;;;;;;;;;21.80;71.00;;;;;;5058527;28;911;-69
2023/08/14 09:01:26;;;;;;;;;;;21.80;70.70;;;;;;5056032;28;1910;-70
2023/08/14 09:03:51;;;;;;;;;;;21.80;68.60;;;;;;5067353;28;907;-69
2023/08/14 09:06:17;;;;;;;;;;;21.80;69.80;;;;;;5056796;28;1386;-69
2023/08/14 09:08:42;;;;;;;;;;;21.80;70.30;;;;;;5065059;28;1192;-69
2023/08/14 09:11:08;;;;;;;;;;;21.90;70.40;;;;;;5058631;28;896;-70
2023/08/14 09:13:33;;;;;;;;;;;21.90;70.30;;;;;;5057511;28;914;-68
2023/08/14 09:16:02;;;;;;;;;;;21.90;69.90;;;;;;5059620;28;1998;-69
2023/08/14 09:18:27;;;;;;;;;;;21.90;69.50;;;;;;5057572;28;1300;-69
2023/08/14 09:20:53;;;;;;;;;;;21.90;69.60;;;;;;5044451;28;1909;-70
2023/08/14 09:23:18;;;;;;;;;;;21.90;69.60;;;;;;5055782;28;863;-69
2023/08/14 09:25:47;;;;;;;;;;;21.90;69.80;;;;;;5055228;28;1264;-68
2023/08/14 09:28:12;;;;;;;;;;;21.90;69.90;;;;;;5057629;28;1253;-69
2023/08/14 09:30:38;;;;;;;;;;;21.90;69.70;;;;;;5061912;28;827;-68
2023/08/14 09:33:09;;;;;;;;;;;21.90;68.50;;;;;;5063504;28;815;-69
2023/08/14 09:35:35;;;;;;;;;;;21.90;68.80;;;;;;5063679;28;876;-68
2023/08/14 09:38:01;;;;;;;;;;;21.90;68.60;;;;;;5061157;28;1238;-69
2023/08/14 09:40:26;;;;;;;;;;;21.90;68.60;;;;;;5062862;28;1902;-69
2023/08/14 09:42:52;;;;;;;;;;;21.90;68.40;;;;;;5058224;28;955;-68
2023/08/14 09:45:18;;;;;;;;;;;22.00;68.60;;;;;;5063588;28;1313;-68
2023/08/14 09:47:44;;;;;;;;;;;22.00;67.70;;;;;;5062513;28;1249;-69
2023/08/14 09:50:13;;;;;;;;;;;22.00;66.60;;;;;;5064812;28;848;-68
2023/08/14 09:52:42;;;;;;;;;;;22.00;67.00;;;;;;5059309;28;872;-68
2023/08/14 09:55:07;;;;;;;;;;;22.00;66.90;;;;;;5068774;28;1090;-69
2023/08/14 09:57:33;;;;;;;;;;;22.10;66.20;;;;;;5061897;28;1296;-68
2023/08/14 09:59:58;;;;;;;;;;;22.00;66.30;;;;;;5058863;28;1972;-68
2023/08/14 10:02:24;;;;;;;;;;;22.00;66.40;;;;;;5058720;28;924;-68
2023/08/14 10:04:50;;;;;;;;;;;22.10;66.80;;;;;;5062054;28;872;-68
2023/08/14 10:07:15;;;;;;;;;;;22.10;67.10;;;;;;5058830;28;1248;-68
2023/08/14 10:09:43;;;;;;;;;;;22.10;67.30;;;;;;5059254;28;1319;-68
2023/08/14 10:12:12;;;;;;;;;;;22.10;67.40;;;;;;5059921;28;898;-68
2023/08/14 10:14:38;;;;;;;;;;;22.10;67.80;;;;;;5061749;28;891;-68
2023/08/14 10:17:04;;;;;;;;;;;22.10;67.10;;;;;;5056670;28;1292;-69
2023/08/14 10:19:29;;;;;;;;;;;22.10;67.20;;;;;;5056365;28;1414;-69
2023/08/14 10:21:55;;;;;;;;;;;22.20;67.00;;;;;;5061347;28;1909;-67
2023/08/14 10:24:21;;;;;;;;;;;22.20;66.10;;;;;;5060280;28;872;-67
2023/08/14 10:26:46;;;;;;;;;;;22.20;64.50;;;;;;5057469;28;2460;-69
2023/08/14 10:29:12;;;;;;;;;;;22.20;65.70;;;;;;5059676;28;1352;-70
2023/08/14 10:31:37;;;;;;;;;;;22.20;65.80;;;;;;5059358;28;1370;-69
2023/08/14 10:34:03;;;;;;;;;;;22.30;66.10;;;;;;5057670;28;875;-69
2023/08/14 10:36:28;;;;;;;;;;;22.30;66.70;;;;;;5057551;28;1265;-69
2023/08/14 10:38:54;;;;;;;;;;;22.30;65.70;;;;;;5067392;28;1603;-69
2023/08/14 10:41:19;;;;;;;;;;;22.30;65.30;;;;;;5059699;28;1973;-70
2023/08/14 10:43:50;;;;;;;;;;;22.30;65.50;;;;;;5058943;28;923;-70
2023/08/14 10:46:16;;;;;;;;;;;22.30;65.00;;;;;;5061266;28;1374;-70
2023/08/14 10:48:42;;;;;;;;;;;22.30;64.90;;;;;;5057971;28;863;-70
2023/08/14 10:51:08;;;;;;;;;;;22.30;64.90;;;;;;5058584;28;831;-70
2023/08/14 10:53:34;;;;;;;;;;;22.30;63.80;;;;;;5058797;28;906;-69
2023/08/14 10:55:59;;;;;;;;;;;22.30;63.40;;;;;;5062961;28;1253;-69
2023/08/14 10:58:27;;;;;;;;;;;22.30;63.10;;;;;;5060389;28;918;-69
2023/08/14 11:00:53;;;;;;;;;;;22.30;63.30;;;;;;5056651;28;1914;-69
2023/08/14 11:03:18;;;;;;;;;;;22.30;63.50;;;;;;5063416;28;1211;-68
2023/08/14 11:05:44;;;;;;;;;;;22.40;63.90;;;;;;5060750;28;1258;-68
2023/08/14 11:08:10;;;;;;;;;;;22.40;63.80;;;;;;5059699;28;1018;-69
2023/08/14 11:10:36;;;;;;;;;;;22.40;62.20;;;;;;5063950;28;916;-69
2023/08/14 11:13:02;;;;;;;;;;;22.40;63.30;;;;;;5058629;28;860;-69
2023/08/14 11:15:29;;;;;;;;;;;22.40;63.20;;;;;;5061277;28;789;-69
2023/08/14 11:17:55;;;;;;;;;;;22.40;63.20;;;;;;5057656;28;1371;-68
2023/08/14 11:20:20;;;;;;;;;;;22.50;63.40;;;;;;5059838;28;1954;-68
2023/08/14 11:22:45;;;;;;;;;;;22.50;64.00;;;;;;5060110;28;906;-69
2023/08/14 11:25:15;;;;;;;;;;;22.50;64.60;;;;;;5060634;28;835;-68
2023/08/14 11:27:41;;;;;;;;;;;22.50;64.30;;;;;;5058066;28;1337;-68
2023/08/14 11:30:06;;;;;;;;;;;22.50;64.30;;;;;;5053999;28;891;-68
2023/08/14 11:32:32;;;;;;;;;;;22.50;64.10;;;;;;5058622;28;1007;-70
2023/08/14 11:34:57;;;;;;;;;;;22.50;64.80;;;;;;5060745;28;874;-68
2023/08/14 11:37:23;;;;;;;;;;;22.50;64.80;;;;;;5061319;28;1304;-68
2023/08/14 11:39:49;;;;;;;;;;;22.50;65.00;;;;;;5056027;28;1898;-70
2023/08/14 11:42:14;;;;;;;;;;;22.50;65.40;;;;;;5058860;28;832;-68
2023/08/14 11:44:40;;;;;;;;;;;22.50;65.60;;;;;;5058221;28;1065;-67
2023/08/14 11:47:08;;;;;;;;;;;22.50;66.20;;;;;;5055986;28;1351;-68
2023/08/14 11:49:40;;;;;;;;;;;22.50;66.00;;;;;;5066246;28;909;-69
2023/08/14 11:52:05;;;;;;;;;;;22.50;66.00;;;;;;5057524;28;1002;-68
2023/08/14 11:54:31;;;;;;;;;;;22.50;65.50;;;;;;5059539;28;1074;-69
2023/08/14 11:57:03;;;;;;;;;;;22.50;65.40;;;;;;5067131;28;1278;-69
2023/08/14 11:59:28;;;;;;;;;;;22.50;65.40;;;;;;5060853;28;1205;-69
2023/08/14 12:01:54;;;;;;;;;;;22.50;65.40;;;;;;5054535;28;1971;-69
2023/08/14 12:04:19;;;;;;;;;;;22.60;65.60;;;;;;5065184;28;1503;-69
2023/08/14 12:06:45;;;;;;;;;;;22.60;65.70;;;;;;5058763;28;1350;-68
2023/08/14 12:09:10;;;;;;;;;;;22.60;65.60;;;;;;5057953;28;1147;-68
2023/08/14 12:11:36;;;;;;;;;;;22.60;65.40;;;;;;5057501;28;836;-68
2023/08/14 12:14:05;;;;;;;;;;;22.60;66.10;;;;;;5054999;28;1374;-68
2023/08/14 12:16:30;;;;;;;;;;;22.60;66.00;;;;;;5066867;28;1275;-68
2023/08/14 12:18:56;;;;;;;;;;;22.60;66.10;;;;;;5054941;28;994;-68
2023/08/14 12:21:26;;;;;;;;;;;22.60;66.10;;;;;;5055914;28;1898;-67
2023/08/14 12:23:53;;;;;;;;;;;22.60;66.30;;;;;;5055953;28;816;-68
2023/08/14 12:26:19;;;;;;;;;;;22.60;66.20;;;;;;5067475;28;1357;-67
2023/08/14 12:28:44;;;;;;;;;;;22.60;66.00;;;;;;5057186;28;1294;-68
2023/08/14 12:31:10;;;;;;;;;;;22.50;65.60;;;;;;5061072;28;954;-68
2023/08/14 12:33:36;;;;;;;;;;;22.50;65.40;;;;;;5060743;28;762;-68
2023/08/14 12:36:01;;;;;;;;;;;22.50;64.80;;;;;;5062971;28;1234;-68
2023/08/14 12:38:27;;;;;;;;;;;22.50;64.50;;;;;;5059646;28;1352;-68
2023/08/14 12:40:52;;;;;;;;;;;22.60;64.60;;;;;;5059251;28;1894;-68
2023/08/14 12:43:18;;;;;;;;;;;22.60;64.40;;;;;;5059629;28;873;-69
2023/08/14 12:45:43;;;;;;;;;;;22.60;64.40;;;;;;5059901;28;1296;-69
2023/08/14 12:48:09;;;;;;;;;;;22.70;64.50;;;;;;5055359;28;911;-68
2023/08/14 12:50:35;;;;;;;;;;;22.70;64.70;;;;;;5056965;28;871;-68
2023/08/14 12:53:02;;;;;;;;;;;22.70;65.30;;;;;;5058501;28;1126;-69
2023/08/14 12:55:28;;;;;;;;;;;22.70;65.20;;;;;;5057808;28;1008;-70
2023/08/14 12:57:53;;;;;;;;;;;22.70;65.50;;;;;;5059904;28;1255;-68
2023/08/14 13:00:20;;;;;;;;;;;22.70;63.90;;;;;;5060589;28;1953;-69
2023/08/14 13:02:45;;;;;;;;;;;22.70;64.10;;;;;;5065877;28;858;-68
2023/08/14 13:05:11;;;;;;;;;;;22.80;64.20;;;;;;5063348;28;970;-67
2023/08/14 13:07:36;;;;;;;;;;;22.80;63.70;;;;;;5060426;28;1303;-68
2023/08/14 13:10:02;;;;;;;;;;;22.80;63.80;;;;;;5057947;28;950;-68
2023/08/14 13:12:28;;;;;;;;;;;22.80;63.80;;;;;;5060792;28;812;-67
2023/08/14 13:14:54;;;;;;;;;;;22.80;64.20;;;;;;5060814;28;916;-67
2023/08/14 13:17:19;;;;;;;;;;;22.80;62.90;;;;;;5061768;28;1345;-68
2023/08/14 13:19:45;;;;;;;;;;;22.80;62.90;;;;;;5064934;28;1270;-69
2023/08/14 13:22:15;;;;;;;;;;;22.80;62.90;;;;;;5068359;28;1921;-68
2023/08/14 13:24:41;;;;;;;;;;;22.80;63.10;;;;;;5064102;28;1250;-68
2023/08/14 13:27:06;;;;;;;;;;;22.80;62.80;;;;;;5065118;28;1485;-68
2023/08/14 13:29:32;;;;;;;;;;;22.80;62.10;;;;;;5055982;28;1054;-68
2023/08/14 13:31:57;;;;;;;;;;;22.80;62.40;;;;;;5062984;28;1250;-68
2023/08/14 13:34:23;;;;;;;;;;;22.80;62.20;;;;;;5058948;28;1380;-70
2023/08/14 13:36:48;;;;;;;;;;;22.80;62.40;;;;;;5061643;28;1345;-68
2023/08/14 13:39:16;;;;;;;;;;;22.80;62.40;;;;;;5062776;28;1275;-69
2023/08/14 13:41:42;;;;;;;;;;;22.80;62.60;;;;;;5057651;28;1956;-69
2023/08/14 13:44:07;;;;;;;;;;;22.80;62.60;;;;;;5069339;28;911;-70
2023/08/14 13:46:33;;;;;;;;;;;22.80;62.80;;;;;;5051956;28;1296;-67
2023/08/14 13:48:58;;;;;;;;;;;22.80;63.00;;;;;;5052281;28;1682;-68
2023/08/14 13:51:23;;;;;;;;;;;22.80;62.90;;;;;;5065452;28;1549;-70
2023/08/14 13:53:49;;;;;;;;;;;22.80;62.80;;;;;;5058843;28;1454;-68
2023/08/14 13:56:15;;;;;;;;;;;22.70;63.00;;;;;;5067081;28;1288;-68
2023/08/14 13:58:40;;;;;;;;;;;22.70;63.00;;;;;;5066867;28;862;-67
2023/08/14 14:01:05;;;;;;;;;;;22.70;63.00;;;;;;5062174;28;2007;-66
2023/08/14 14:03:31;;;;;;;;;;;22.70;63.30;;;;;;5061841;28;1208;-67
2023/08/14 14:05:56;;;;;;;;;;;22.70;63.30;;;;;;5060345;28;1330;-67
2023/08/14 14:08:22;;;;;;;;;;;22.70;63.40;;;;;;5060498;28;1041;-69
2023/08/14 14:10:47;;;;;;;;;;;22.70;63.60;;;;;;5060139;28;878;-69
2023/08/14 14:13:13;;;;;;;;;;;22.60;63.70;;;;;;5052314;28;804;-68
2023/08/14 14:15:38;;;;;;;;;;;22.60;64.00;;;;;;5059177;28;851;-68
2023/08/14 14:18:04;;;;;;;;;;;22.60;64.10;;;;;;5060441;28;1273;-69
2023/08/14 14:20:29;;;;;;;;;;;22.60;64.20;;;;;;5068663;28;1909;-68
2023/08/14 14:22:55;;;;;;;;;;;22.60;64.30;;;;;;5049622;28;1715;-69
2023/08/14 14:25:20;;;;;;;;;;;22.60;64.50;;;;;;5060527;28;1292;-69
2023/08/14 14:27:46;;;;;;;;;;;22.60;64.60;;;;;;5045443;28;1337;-70